Pardubice, Czech Republic

10:33 AM CET on January 17, 2017 (GMT +0100)
37 | | Change Station

Elev 738 ft 50.02 °N, 15.76 °E | Updated 6 minutes ago

Clear
Clear
19.9 °F
Feels Like 20 °F
N
1.2
Wind Variable Wind from WNW
Gusts 3.1 mph

Today
High -- | Low -- °F
--% Chance of Precip.
Yesterday
High -- | Low -- °F
Precip. -- in
Pressure 30.48 in
Visibility 0.7 miles
Clouds Scattered Clouds 300 ft
Mostly Cloudy 2600 ft
Windchill 20 °F
Dew Point 18 °F
Humidity 91%
Rainfall 0.00 in
Snow Depth Not available.
7:48 AM 4:26 PM
Waning Gibbous, 74% visible
SPECI LKCV 170922Z VRB01KT 1200 BR SCT003 BKN026 M08/M09 Q1032 RMK AMB
Pressure 30.48 in
Visibility 0.7 miles
Clouds Scattered Clouds 300 ft
Mostly Cloudy 2600 ft
Windchill 20 °F
Dew Point 18 °F
Humidity 91%
Rainfall 0.00 in
Snow Depth Not available.
7:48 AM 4:26 PM
Waning Gibbous, 74% visible
SPECI LKCV 170922Z VRB01KT 1200 BR SCT003 BKN026 M08/M09 Q1032 RMK AMB

Get Your Daily Forecast Email!

Thanks for signing up!

Be on the lookout for a verification email in your inbox.

You'll start receiving the daily forecast at 8 AM.

×

10-Day Weather Forecast

×

Almanac

Astronomy

Jan. 17, 2017 Rise Set
Actual Time
Civil Twilight
Nautical Twilight
Astronomical Twilight
Moon
Length of Visible Light
Length of Day
Tomorrow will be .
, % of the Moon is Illuminated

Today's Extremes

Country Highs Country Lows

Community

WunderPhotos

Upload Photos

1,962,540 photos uploaded!

WunderBlog® & News

Nearby

Air Quality

  Air Quality AQ Index Pollutant
Not available.

Snow Depth

Station Depth Elevation

Earthquake Activity

City Distance Mag. Time & Date
Minimum magnitude displayed is 2.5.

Coastal Water Temperatures

Place Temperature

Stations

Nearby Weather Stations

Station Location Temp. Windchill Dew Point Humidity Wind Precip. Elev Updated Type